Robertson, Missouri
Current Conditions -  °F | °C
As of 5:51 AM on Friday 24 Oct 2014 (Local Time) from KSTL Reporting Station
Scattered Clouds Scattered Clouds  
Wind Chill: 55°   Ceiling: Unl
Heat Index: 55°   Visibility: 10mi
Dew Point: 49°   Wind: 3mph
Humidity: 80%   Direction: 260°W
Pressure: 30.1"   Gusts: NA
Location:  38.7849°N, 90.3852°W
Report Text: KSTL 241051Z 26003KT 10SM FEW013 SCT039 13/09 A3010 RMK AO2 SLP189 T01280094
Loading
Personal Weather Stations






























Interactive Weather Map
Tropical Storm Tracking
New forecast layout! Learn more

10-Day Weather Forecast

Advertisements
Track Severe Weather on mobile